Time;durP1;ratioP1;P1;durP2;ratioP2;P2;SDS_P1;SDS_P2;PMS_P1;PMS_P2;Temp;Humidity;BMP_temperature;BMP_pressure;BME280_temperature;BME280_humidity;BME280_pressure;Samples;Min_cycle;Max_cycle;Signal;HPM_P1;HPM_P2
2023/10/08 00:03:05;;;;;;;9.43;3.97;;;;;;;19.58;44.70;100457.06;5590079;31;34558;-66
2023/10/08 00:06:12;;;;;;;11.68;4.00;;;;;;;19.52;44.68;100456.09;5590421;31;33777;-66
2023/10/08 00:09:15;;;;;;;8.80;3.25;;;;;;;19.48;44.91;100451.38;5590191;31;33812;-66
2023/10/08 00:12:19;;;;;;;9.80;3.78;;;;;;;19.50;44.46;100442.06;5590093;31;33765;-66
2023/10/08 00:15:25;;;;;;;11.02;4.07;;;;;;;19.49;44.16;100444.97;5576354;31;33979;-66
2023/10/08 00:18:28;;;;;;;8.45;3.70;;;;;;;19.50;45.21;100442.06;5590087;31;34028;-66
2023/10/08 00:21:33;;;;;;;12.15;3.72;;;;;;;19.43;44.77;100432.38;5589879;31;33851;-67
2023/10/08 00:24:40;;;;;;;12.52;3.60;;;;;;;19.32;45.19;100425.03;5589929;31;33832;-66
2023/10/08 00:27:45;;;;;;;7.65;3.42;;;;;;;19.56;44.43;100437.63;5576210;31;33844;-66
2023/10/08 00:30:48;;;;;;;8.82;3.60;;;;;;;19.61;44.53;100435.09;5590078;31;33836;-66
2023/10/08 00:33:52;;;;;;;10.15;3.50;;;;;;;19.55;44.36;100435.19;5589932;31;34523;-67
2023/10/08 00:36:55;;;;;;;7.00;3.42;;;;;;;19.56;45.49;100436.84;5590267;31;34902;-67
2023/10/08 00:39:58;;;;;;;9.75;3.87;;;;;;;19.36;44.67;100428.94;5589944;31;33879;-67
2023/10/08 00:43:03;;;;;;;11.52;3.50;;;;;;;19.59;43.83;100426.44;5589936;31;33941;-67
2023/10/08 00:46:21;;;;;;;8.38;3.75;;;;;;;19.66;43.78;100420.94;5588580;31;34503;-67
2023/10/08 00:53:00;;;;;;;11.65;3.50;;;;;;;19.71;43.52;100411.16;5589910;31;34593;-67
2023/10/08 00:56:11;;;;;;;12.18;3.40;;;;;;;19.73;43.42;100411.75;5589924;31;33994;-67
2023/10/08 00:59:14;;;;;;;9.10;3.50;;;;;;;19.62;43.79;100403.63;5589997;31;33749;-66
2023/10/08 01:02:28;;;;;;;8.63;3.50;;;;;;;19.55;44.16;100398.34;5589804;31;34675;-67
2023/10/08 01:05:42;;;;;;;10.88;3.45;;;;;;;19.49;44.30;100399.22;5589914;31;34457;-67
2023/10/08 01:08:52;;;;;;;9.73;3.53;;;;;;;19.38;45.88;100402.63;5589666;31;34562;-67
2023/10/08 01:15:28;;;;;;;9.77;3.53;;;;;;;19.05;45.79;100403.81;5589736;31;34564;-67
2023/10/08 01:18:32;;;;;;;8.75;3.45;;;;;;;18.88;46.01;100388.50;5577008;31;34545;-67
2023/10/08 01:21:40;;;;;;;9.10;3.40;;;;;;;18.77;46.35;100368.53;5589615;31;34736;-66
2023/10/08 01:24:43;;;;;;;8.52;3.30;;;;;;;18.74;46.47;100368.94;5589525;31;34577;-67
2023/10/08 01:27:46;;;;;;;11.30;3.45;;;;;;;18.66;46.85;100375.44;5576204;31;33943;-67
2023/10/08 01:30:53;;;;;;;10.77;3.62;;;;;;;18.73;46.84;100370.03;5589529;31;34108;-67
2023/10/08 01:33:56;;;;;;;6.95;3.45;;;;;;;18.80;46.82;100361.88;5589530;31;34049;-65
2023/10/08 01:37:03;;;;;;;7.65;3.25;;;;;;;18.87;46.78;100341.97;5589781;31;33802;-66
2023/10/08 01:40:07;;;;;;;10.93;3.42;;;;;;;19.02;46.49;100355.06;5589438;31;33805;-67
2023/10/08 01:43:13;;;;;;;6.22;3.42;;;;;;;19.08;46.52;100356.81;5589417;31;33932;-66
2023/10/08 01:46:16;;;;;;;7.70;3.50;;;;;;;19.04;46.73;100345.69;5589469;31;34635;-67
2023/10/08 01:49:22;;;;;;;11.40;3.62;;;;;;;18.93;47.21;100343.75;5589250;31;34904;-66
2023/10/08 01:52:25;;;;;;;6.80;3.62;;;;;;;18.87;47.34;100325.00;5589080;31;34133;-66
2023/10/08 01:55:33;;;;;;;13.75;4.03;;;;;;;18.84;47.66;100320.06;5589551;31;33900;-66
2023/10/08 01:58:37;;;;;;;8.65;3.72;;;;;;;18.86;47.79;100313.44;5588893;31;34051;-66
2023/10/08 02:01:41;;;;;;;12.32;3.80;;;;;;;18.79;48.23;100320.72;5589082;31;34549;-66
2023/10/08 02:04:44;;;;;;;9.73;3.45;;;;;;;18.69;48.75;100311.56;5589075;31;33979;-66
2023/10/08 02:07:47;;;;;;;11.52;3.33;;;;;;;18.72;49.00;100322.69;5589012;31;34633;-66
2023/10/08 02:10:50;;;;;;;7.85;3.42;;;;;;;18.58;49.63;100318.47;5589377;31;34037;-66
2023/10/08 02:13:53;;;;;;;11.12;3.47;;;;;;;18.87;49.33;100303.50;5588860;31;34057;-66
2023/10/08 02:16:56;;;;;;;10.98;3.55;;;;;;;19.00;49.31;100314.94;5588988;31;33799;-66
2023/10/08 02:20:00;;;;;;;16.25;3.30;;;;;;;18.98;49.70;100300.88;5589183;31;34447;-66
2023/10/08 02:23:05;;;;;;;12.30;3.83;;;;;;;18.98;49.79;100311.63;5588698;31;34715;-65
2023/10/08 02:26:08;;;;;;;9.60;3.65;;;;;;;18.92;51.07;100311.72;5575019;31;34539;-66
2023/10/08 02:29:11;;;;;;;12.20;3.28;;;;;;;18.88;50.70;100302.47;5588770;31;34558;-67
2023/10/08 02:32:14;;;;;;;15.95;3.70;;;;;;;18.97;50.69;100298.44;5588659;31;33878;-66
2023/10/08 02:35:16;;;;;;;15.43;3.60;;;;;;;19.05;50.72;100296.25;5588706;31;33745;-65
2023/10/08 02:38:21;;;;;;;10.35;3.78;;;;;;;19.18;50.74;100286.38;5588703;31;33777;-66
2023/10/08 02:41:24;;;;;;;12.02;4.28;;;;;;;19.09;50.66;100277.81;5588703;31;34527;-66
2023/10/08 02:44:27;;;;;;;11.65;3.83;;;;;;;19.25;50.38;100276.38;5588551;31;33990;-66
2023/10/08 02:47:31;;;;;;;14.02;3.55;;;;;;;19.27;50.41;100285.84;5574651;31;34550;-66
2023/10/08 02:50:35;;;;;;;17.45;4.45;;;;;;;19.27;50.46;100290.38;5588674;31;33349;-66
2023/10/08 02:53:41;;;;;;;12.77;3.42;;;;;;;19.15;51.54;100282.28;5588179;31;33600;-66
2023/10/08 02:56:51;;;;;;;13.75;3.78;;;;;;;19.03;52.13;100292.13;5588555;31;33894;-66
2023/10/08 02:59:55;;;;;;;15.75;3.50;;;;;;;19.06;51.57;100289.84;5588090;31;33767;-66
2023/10/08 03:03:01;;;;;;;11.45;3.33;;;;;;;19.25;51.63;100279.06;5588490;31;34521;-66
2023/10/08 03:06:04;;;;;;;17.58;3.65;;;;;;;19.34;51.45;100265.06;5588339;31;33849;-67
2023/10/08 03:09:08;;;;;;;10.77;3.15;;;;;;;19.30;51.39;100255.81;5589075;31;33769;-66
2023/10/08 03:12:10;;;;;;;11.70;3.42;;;;;;;19.21;51.75;100261.75;5590635;31;33886;-66
2023/10/08 03:15:28;;;;;;;13.75;3.40;;;;;;;19.28;51.44;100254.37;5590568;31;34462;-66
2023/10/08 03:18:42;;;;;;;13.48;3.22;;;;;;;19.25;51.45;100265.59;5590627;31;34900;-66
2023/10/08 03:21:56;;;;;;;10.50;3.70;;;;;;;19.22;52.07;100269.56;5590839;31;34489;-66
2023/10/08 03:25:14;;;;;;;10.00;3.50;;;;;;;19.18;51.59;100272.94;5590369;31;34214;-66
2023/10/08 03:28:17;;;;;;;10.40;3.67;;;;;;;19.15;51.47;100270.69;5590560;31;34000;-66
2023/10/08 03:31:20;;;;;;;11.25;3.42;;;;;;;18.89;53.28;100266.47;5590840;31;34501;-66
2023/10/08 03:34:28;;;;;;;12.13;3.70;;;;;;;18.71;53.80;100261.09;5590688;31;32119;-66
2023/10/08 03:37:41;;;;;;;14.80;3.28;;;;;;;18.69;53.52;100250.56;5590594;31;33856;-66
2023/10/08 03:40:48;;;;;;;8.52;3.35;;;;;;;18.93;52.03;100241.59;5590398;31;33885;-66
2023/10/08 03:44:12;;;;;;;9.18;3.28;;;;;;;18.85;52.51;100235.69;5576595;31;34717;-66
2023/10/08 03:47:18;;;;;;;9.90;3.22;;;;;;;18.92;51.69;100233.78;5590366;31;34908;-66
2023/10/08 03:50:32;;;;;;;10.98;3.08;;;;;;;18.87;52.14;100221.00;5590240;31;33995;-65
2023/10/08 03:53:44;;;;;;;12.50;3.33;;;;;;;18.94;51.44;100218.22;5590621;31;33851;-66
2023/10/08 03:56:48;;;;;;;12.90;3.40;;;;;;;18.91;51.63;100210.63;5576451;31;34795;-65
2023/10/08 03:59:58;;;;;;;8.77;3.08;;;;;;;18.89;51.49;100204.62;5590615;31;34482;-66
2023/10/08 04:03:07;;;;;;;16.33;3.72;;;;;;;19.00;51.32;100230.75;5590498;31;34546;-66
2023/10/08 04:06:22;;;;;;;9.07;3.58;;;;;;;18.79;52.33;100221.28;5576311;31;34860;-66
2023/10/08 04:09:25;;;;;;;8.40;3.20;;;;;;;18.62;53.69;100223.78;5590116;31;34949;-66
2023/10/08 04:12:28;;;;;;;10.07;3.33;;;;;;;18.39;54.50;100214.69;5590236;31;33841;-66
2023/10/08 04:15:31;;;;;;;11.82;3.05;;;;;;;18.21;58.24;100202.06;5590179;31;34000;-66
2023/10/08 04:18:40;;;;;;;11.32;3.50;;;;;;;18.47;54.63;100198.28;5590200;31;33921;-66
2023/10/08 04:21:43;;;;;;;10.98;3.40;;;;;;;18.55;54.52;100212.25;5590028;31;33873;-65
2023/10/08 04:24:46;;;;;;;9.50;3.05;;;;;;;18.54;54.76;100210.63;5589974;31;34814;-65
2023/10/08 04:27:49;;;;;;;9.25;3.20;;;;;;;18.56;55.23;100195.09;5576095;31;34772;-66
2023/10/08 04:30:52;;;;;;;12.05;3.37;;;;;;;18.48;55.76;100194.56;5576259;31;33763;-67
2023/10/08 04:34:00;;;;;;;8.35;3.60;;;;;;;18.46;56.33;100199.31;5589946;31;33893;-66
2023/10/08 04:37:12;;;;;;;8.25;3.40;;;;;;;18.60;55.94;100195.47;5576291;31;34405;-66
2023/10/08 04:40:16;;;;;;;10.13;3.22;;;;;;;18.63;56.13;100200.41;5589942;31;34490;-66
2023/10/08 04:43:30;;;;;;;12.63;3.87;;;;;;;18.61;56.54;100195.25;5589868;31;33856;-66
2023/10/08 04:46:46;;;;;;;14.25;3.47;;;;;;;18.87;55.68;100187.94;5589600;31;34479;-66
2023/10/08 04:49:53;;;;;;;9.13;3.22;;;;;;;18.92;55.48;100183.50;5577625;31;34026;-66
2023/10/08 04:52:58;;;;;;;11.75;3.58;;;;;;;18.85;56.14;100198.06;5589872;31;33941;-67
2023/10/08 04:56:13;;;;;;;12.48;3.50;;;;;;;18.82;55.98;100191.28;5589773;31;34510;-67
2023/10/08 04:59:22;;;;;;;14.68;3.30;;;;;;;18.78;56.07;100200.84;5589707;31;34139;-67
2023/10/08 05:02:48;;;;;;;17.17;3.90;;;;;;;19.02;54.99;100208.00;5589794;31;34475;-66
2023/10/08 05:06:08;;;;;;;18.10;3.70;;;;;;;19.31;54.13;100202.84;5589601;31;34541;-67
2023/10/08 05:12:47;;;;;;;15.10;3.70;;;;;;;19.81;53.04;100200.63;5590107;31;33788;-67
2023/10/08 05:16:06;;;;;;;21.75;4.00;;;;;;;19.91;53.05;100209.78;5589758;31;34027;-66
2023/10/08 05:25:57;;;;;;;12.75;3.60;;;;;;;20.15;52.13;100234.03;5589935;31;33944;-66
2023/10/08 05:29:01;;;;;;;13.85;3.47;;;;;;;20.01;52.72;100238.81;5589499;31;33860;-67
2023/10/08 05:39:00;;;;;;;9.48;3.12;;;;;;;20.06;52.25;100238.13;5589392;31;33873;-67
2023/10/08 05:45:29;;;;;;;13.73;3.85;;;;;;;20.04;52.44;100242.94;5589304;31;34737;-67
2023/10/08 05:48:45;;;;;;;12.25;3.05;;;;;;;19.98;52.50;100246.56;5576042;31;34410;-66
2023/10/08 05:58:13;;;;;;;8.63;3.40;;;;;;;20.18;52.75;100255.94;5589537;31;34129;-67
2023/10/08 06:02:07;;;;;;;10.13;3.30;;;;;;;20.09;53.08;100257.31;5588958;31;35330;-67
2023/10/08 06:04:53;;;;;;;11.15;3.12;;;;;;;20.12;53.72;100253.34;5581000;31;34602;-67
2023/10/08 06:08:10;;;;;;;11.00;3.00;;;;;;;20.13;53.56;100265.78;5588710;31;34439;-67
2023/10/08 06:11:27;;;;;;;10.18;3.50;;;;;;;20.15;54.44;100258.28;5589130;31;34627;-66
2023/10/08 06:14:52;;;;;;;9.68;3.35;;;;;;;20.12;54.48;100278.41;5588982;31;33890;-67
2023/10/08 06:17:56;;;;;;;12.45;3.25;;;;;;;20.22;54.43;100275.16;5575196;31;34055;-66
2023/10/08 06:21:11;;;;;;;15.60;3.42;;;;;;;20.18;54.38;100266.72;5588950;31;33810;-67
2023/10/08 06:24:16;;;;;;;10.32;3.10;;;;;;;20.16;54.57;100279.59;5588552;31;34655;-66
2023/10/08 06:27:20;;;;;;;8.45;3.30;;;;;;;20.17;55.36;100285.81;5588680;31;34412;-66
2023/10/08 06:30:28;;;;;;;11.30;3.35;;;;;;;20.16;56.24;100279.59;5588835;31;33940;-67
2023/10/08 06:33:33;;;;;;;10.65;3.55;;;;;;;20.14;56.62;100292.47;5588782;31;33896;-66
2023/10/08 06:36:36;;;;;;;15.35;3.72;;;;;;;20.13;56.67;100307.00;5574665;31;34033;-66
2023/10/08 06:39:48;;;;;;;10.77;3.37;;;;;;;20.13;56.93;100292.72;5588630;31;33844;-66
2023/10/08 06:42:51;;;;;;;10.18;3.05;;;;;;;20.16;57.48;100303.84;5588278;31;34462;-69
2023/10/08 06:45:58;;;;;;;11.52;3.10;;;;;;;20.16;56.75;100309.22;5576796;31;33892;-66
2023/10/08 06:49:03;;;;;;;9.95;3.75;;;;;;;20.11;56.96;100292.13;5590893;31;33991;-67
2023/10/08 06:52:10;;;;;;;8.90;3.35;;;;;;;20.04;57.54;100297.63;5590695;31;34114;-66
2023/10/08 06:55:17;;;;;;;9.95;3.03;;;;;;;20.02;57.39;100298.88;5577138;31;34204;-66
2023/10/08 06:58:20;;;;;;;14.07;3.30;;;;;;;19.93;57.88;100296.53;5590723;31;33905;-66
2023/10/08 07:01:29;;;;;;;12.15;4.03;;;;;;;19.83;58.81;100295.47;5590867;31;33865;-66
2023/10/08 07:04:32;;;;;;;12.10;3.72;;;;;;;19.75;60.13;100287.72;5590775;31;33813;-65
2023/10/08 07:07:39;;;;;;;11.02;3.20;;;;;;;19.77;60.51;100272.97;5590339;31;34053;-66
2023/10/08 07:10:42;;;;;;;13.13;3.75;;;;;;;19.79;59.57;100278.94;5590370;31;34922;-66
2023/10/08 07:13:45;;;;;;;13.18;3.90;;;;;;;19.77;59.54;100286.44;5590330;31;34621;-68
2023/10/08 07:16:52;;;;;;;11.25;3.70;;;;;;;19.79;60.10;100286.19;5576836;31;34470;-66
2023/10/08 07:19:57;;;;;;;13.55;3.90;;;;;;;19.86;59.79;100282.34;5590506;31;33925;-67
2023/10/08 07:23:02;;;;;;;12.32;3.62;;;;;;;19.94;60.29;100278.53;5590905;31;34829;-66
2023/10/08 07:26:11;;;;;;;11.68;3.80;;;;;;;19.95;60.18;100277.44;5576482;31;33776;-66
2023/10/08 07:29:17;;;;;;;10.35;3.53;;;;;;;20.12;60.76;100274.91;5590202;31;34447;-66
2023/10/08 07:32:21;;;;;;;11.48;3.58;;;;;;;20.28;59.34;100279.62;5577157;31;34042;-66
2023/10/08 07:35:25;;;;;;;16.40;3.25;;;;;;;20.46;59.17;100298.37;5576412;31;34651;-65
2023/10/08 07:38:28;;;;;;;14.52;3.42;;;;;;;20.81;58.00;100293.00;5590397;31;34842;-66
2023/10/08 07:41:31;;;;;;;16.87;3.50;;;;;;;20.91;57.88;100285.13;5589894;31;34917;-67
2023/10/08 07:44:41;;;;;;;13.88;3.53;;;;;;;21.22;57.40;100283.88;5576914;31;34080;-67
2023/10/08 07:47:44;;;;;;;16.62;3.53;;;;;;;21.52;56.83;100295.28;5589859;31;33838;-67
2023/10/08 07:50:47;;;;;;;14.43;3.80;;;;;;;21.84;56.17;100290.16;5589553;31;34081;-67
2023/10/08 07:53:55;;;;;;;13.80;3.53;;;;;;;21.97;55.65;100283.69;5589941;31;33785;-66
2023/10/08 07:57:25;;;;;;;10.70;3.45;;;;;;;22.50;54.23;100280.47;5590221;31;34019;-66
2023/10/08 08:00:24;;;;;;;11.65;3.20;;;;;;;22.59;54.16;100264.63;5590445;31;32626;-68
2023/10/08 08:03:27;;;;;;;11.35;3.30;;;;;;;22.58;54.47;100279.22;5590115;31;33544;-66
2023/10/08 08:06:33;;;;;;;14.87;3.60;;;;;;;22.23;55.84;100274.91;5589915;31;33969;-67
2023/10/08 08:09:37;;;;;;;11.27;3.30;;;;;;;23.54;52.57;100280.47;5589673;31;34148;-67
2023/10/08 08:12:40;;;;;;;11.40;3.60;;;;;;;23.18;52.75;100287.34;5589180;31;34418;-67
2023/10/08 08:15:50;;;;;;;13.35;3.62;;;;;;;22.51;55.13;100282.13;5589271;31;33729;-68
2023/10/08 08:18:57;;;;;;;13.48;3.87;;;;;;;22.78;54.43;100296.59;5589436;31;33851;-68
2023/10/08 08:22:02;;;;;;;9.10;3.30;;;;;;;22.53;54.89;100288.91;5589611;31;33818;-69
2023/10/08 08:25:15;;;;;;;12.48;3.92;;;;;;;22.74;54.76;100295.44;5589968;31;33900;-68
2023/10/08 08:28:24;;;;;;;16.33;3.37;;;;;;;22.41;55.37;100295.47;5589836;31;34895;-68
2023/10/08 08:31:31;;;;;;;13.50;3.42;;;;;;;21.62;58.37;100302.75;5589190;31;34557;-67
2023/10/08 08:34:34;;;;;;;9.60;3.30;;;;;;;21.32;60.37;100304.84;5589335;31;33890;-67
2023/10/08 08:37:39;;;;;;;8.32;3.22;;;;;;;21.25;61.17;100311.19;5589119;31;34506;-67
2023/10/08 08:40:43;;;;;;;9.10;3.30;;;;;;;21.42;61.47;100308.56;5589391;31;34418;-67
2023/10/08 08:43:58;;;;;;;10.82;3.20;;;;;;;21.31;62.40;100300.50;5589471;31;34442;-67
2023/10/08 08:47:04;;;;;;;17.55;3.50;;;;;;;21.49;62.05;100295.75;5589242;31;33862;-67
2023/10/08 08:50:08;;;;;;;10.93;3.10;;;;;;;21.46;62.21;100298.94;5589044;31;34940;-68
2023/10/08 08:53:12;;;;;;;12.37;3.40;;;;;;;21.67;62.17;100319.03;5588784;31;33852;-68
2023/10/08 08:56:15;;;;;;;9.00;3.28;;;;;;;21.91;61.30;100325.97;5589320;31;33802;-66
2023/10/08 08:59:20;;;;;;;83.15;6.18;;;;;;;21.78;62.17;100341.66;5589061;31;35239;-66
2023/10/08 09:02:22;;;;;;;36.75;4.37;;;;;;;21.77;62.65;100323.81;5589065;31;34475;-67
2023/10/08 09:05:25;;;;;;;11.85;3.20;;;;;;;21.65;63.59;100337.34;5588554;31;33817;-68
2023/10/08 09:08:35;;;;;;;34.58;4.18;;;;;;;21.76;63.69;100330.25;5574336;31;34596;-66
2023/10/08 09:11:42;;;;;;;18.55;3.58;;;;;;;21.85;63.11;100345.81;5574962;31;32596;-68
2023/10/08 09:14:46;;;;;;;11.12;3.30;;;;;;;21.67;64.50;100343.34;5589039;31;34536;-66
2023/10/08 09:17:49;;;;;;;17.00;3.10;;;;;;;21.65;64.96;100343.56;5589267;31;33879;-67
2023/10/08 09:20:53;;;;;;;16.25;3.45;;;;;;;21.48;66.69;100352.69;5589422;31;33974;-66
2023/10/08 09:23:56;;;;;;;14.07;2.87;;;;;;;21.42;68.30;100367.94;5589028;31;34044;-65
2023/10/08 09:27:01;;;;;;;16.98;3.15;;;;;;;21.14;70.30;100370.59;5588912;31;34746;-67
2023/10/08 09:30:08;;;;;;;24.70;3.20;;;;;;;21.13;71.89;100377.00;5589095;31;34814;-67
2023/10/08 09:33:13;;;;;;;11.15;2.97;;;;;;;21.14;72.93;100381.38;5589339;31;33951;-69
2023/10/08 09:36:18;;;;;;;11.98;3.65;;;;;;;21.05;74.40;100383.59;5575557;31;33899;-66
2023/10/08 09:39:26;;;;;;;24.12;3.50;;;;;;;20.98;76.85;100400.94;5575512;31;33857;-68
2023/10/08 09:42:29;;;;;;;26.55;3.78;;;;;;;20.95;77.83;100399.56;5588847;31;34132;-68
2023/10/08 09:45:34;;;;;;;16.17;3.30;;;;;;;20.88;78.68;100406.09;5589582;31;33786;-67
2023/10/08 09:48:40;;;;;;;8.45;2.85;;;;;;;20.90;79.59;100402.13;5589044;31;33869;-67
2023/10/08 09:51:45;;;;;;;14.13;2.75;;;;;;;20.89;80.54;100408.56;5589110;31;33884;-67
2023/10/08 09:54:59;;;;;;;14.32;3.53;;;;;;;20.93;81.02;100422.41;5589006;31;33845;-67
2023/10/08 09:58:02;;;;;;;14.20;3.03;;;;;;;20.78;82.98;100420.97;5589124;31;33709;-66
2023/10/08 10:01:06;;;;;;;10.50;3.17;;;;;;;20.97;81.66;100440.56;5588842;31;33967;-66
2023/10/08 10:04:10;;;;;;;13.65;3.30;;;;;;;20.68;84.07;100452.25;5588776;31;33849;-67
2023/10/08 10:07:16;;;;;;;12.07;2.97;;;;;;;20.58;87.40;100465.47;5575619;31;34940;-66
2023/10/08 10:10:31;;;;;;;9.27;3.03;;;;;;;20.33;91.21;100463.78;5588904;31;33914;-67
2023/10/08 10:13:39;;;;;;;11.65;3.40;;;;;;;20.27;93.99;100474.63;5588770;31;35040;-67
2023/10/08 10:16:49;;;;;;;8.32;2.90;;;;;;;20.13;95.72;100487.47;5588914;31;34516;-66
2023/10/08 10:20:01;;;;;;;9.98;2.95;;;;;;;20.10;97.55;100470.91;5589027;31;34886;-66
2023/10/08 10:23:40;;;;;;;9.15;2.92;;;;;;;19.97;99.68;100469.22;5588733;31;33879;-68
2023/10/08 10:26:47;;;;;;;7.72;2.55;;;;;;;20.03;99.03;100468.34;5588639;31;33960;-68
2023/10/08 10:29:50;;;;;;;5.82;2.35;;;;;;;20.05;98.62;100478.84;5588611;31;33788;-68
2023/10/08 10:32:55;;;;;;;9.30;2.40;;;;;;;19.97;99.06;100488.09;5588589;31;33816;-67
2023/10/08 10:36:01;;;;;;;5.97;1.87;;;;;;;19.69;100.00;100485.13;5588307;31;33846;-67
2023/10/08 10:39:15;;;;;;;5.80;1.92;;;;;;;19.99;98.26;100469.00;5588586;31;33978;-66
2023/10/08 10:42:21;;;;;;;3.92;1.37;;;;;;;20.47;89.81;100464.44;5588476;31;34934;-68
2023/10/08 10:45:38;;;;;;;6.55;1.00;;;;;;;20.42;85.36;100488.56;5588172;31;34159;-67
2023/10/08 10:48:43;;;;;;;2.65;0.80;;;;;;;20.19;85.11;100499.19;5587942;31;33930;-67
2023/10/08 10:51:52;;;;;;;4.40;0.77;;;;;;;20.14;79.80;100501.75;5588172;31;33933;-67
2023/10/08 10:54:59;;;;;;;1.48;0.80;;;;;;;20.56;77.52;100502.66;5588233;31;33779;-66
2023/10/08 10:58:11;;;;;;;2.22;0.60;;;;;;;20.30;77.44;100511.87;5588228;31;33838;-67
2023/10/08 11:01:23;;;;;;;2.15;0.45;;;;;;;20.31;72.00;100527.88;5588050;31;33767;-67
2023/10/08 11:04:29;;;;;;;3.15;0.70;;;;;;;19.92;74.97;100526.47;5574374;31;33870;-67
2023/10/08 11:07:33;;;;;;;2.17;0.60;;;;;;;19.90;74.74;100519.63;5588135;31;34494;-67
2023/10/08 11:10:38;;;;;;;0.80;0.50;;;;;;;19.76;75.11;100526.22;5587809;31;33832;-66
2023/10/08 11:13:41;;;;;;;3.75;0.65;;;;;;;19.84;73.23;100534.03;5587840;31;35263;-67
2023/10/08 11:16:47;;;;;;;1.05;0.60;;;;;;;19.35;76.79;100526.84;5587385;31;35016;-66
2023/10/08 11:19:51;;;;;;;1.02;0.50;;;;;;;19.32;79.34;100538.84;5587658;31;33728;-67
2023/10/08 11:22:54;;;;;;;3.20;0.62;;;;;;;19.11;78.97;100544.63;5573942;31;34529;-67
2023/10/08 11:26:02;;;;;;;2.85;0.50;;;;;;;19.16;77.99;100533.22;5587356;31;34216;-68
2023/10/08 11:29:13;;;;;;;3.28;0.45;;;;;;;18.80;76.45;100550.03;5587597;31;33442;-68
2023/10/08 11:32:17;;;;;;;7.65;0.60;;;;;;;18.57;73.80;100550.59;5590168;31;33902;-68
2023/10/08 11:35:20;;;;;;;3.15;0.40;;;;;;;18.30;72.50;100555.22;5576958;31;34421;-66
2023/10/08 11:38:24;;;;;;;5.10;0.50;;;;;;;18.22;71.89;100561.69;5590563;31;33900;-67
2023/10/08 11:41:29;;;;;;;8.52;0.57;;;;;;;18.13;71.15;100557.59;5590795;31;34809;-67
2023/10/08 11:44:36;;;;;;;4.22;0.32;;;;;;;17.86;72.55;100548.00;5576880;31;34110;-65
2023/10/08 11:47:44;;;;;;;1.05;0.32;;;;;;;17.90;73.43;100583.28;5590011;31;34099;-66
2023/10/08 11:50:50;;;;;;;2.37;0.35;;;;;;;17.97;72.99;100582.22;5590368;31;34798;-65
2023/10/08 11:53:53;;;;;;;5.03;0.40;;;;;;;17.84;74.42;100570.69;5589863;31;34135;-66
2023/10/08 11:56:56;;;;;;;3.33;0.40;;;;;;;17.50;77.21;100580.63;5576404;31;34670;-66
2023/10/08 11:59:59;;;;;;;0.85;0.30;;;;;;;17.25;82.10;100609.09;5590332;31;34556;-65
2023/10/08 12:03:05;;;;;;;0.68;0.30;;;;;;;17.27;81.74;100594.47;5590563;31;33941;-66
2023/10/08 12:06:08;;;;;;;2.03;0.40;;;;;;;17.25;82.59;100599.19;5590329;31;33879;-66
2023/10/08 12:09:12;;;;;;;1.65;0.45;;;;;;;17.24;82.08;100607.44;5590051;31;34572;-67
2023/10/08 12:12:20;;;;;;;0.73;0.32;;;;;;;17.20;82.73;100620.44;5589566;31;34455;-67
2023/10/08 12:15:34;;;;;;;6.03;0.52;;;;;;;17.06;82.39;100626.81;5589971;31;33770;-68
2023/10/08 12:18:39;;;;;;;2.15;0.30;;;;;;;17.03;80.75;100629.91;5589708;31;34118;-67
2023/10/08 12:21:47;;;;;;;1.08;0.40;;;;;;;16.86;80.08;100644.69;5589949;31;34535;-67
2023/10/08 12:24:50;;;;;;;0.45;0.30;;;;;;;16.92;79.94;100654.63;5589919;31;34084;-66
2023/10/08 12:27:53;;;;;;;3.87;0.50;;;;;;;17.00;75.60;100659.78;5576089;31;33902;-67
2023/10/08 12:30:57;;;;;;;3.33;0.30;;;;;;;16.92;75.39;100663.47;5589775;31;34903;-67
2023/10/08 12:34:00;;;;;;;1.15;0.30;;;;;;;16.74;71.40;100660.56;5590053;31;33895;-67
2023/10/08 12:37:03;;;;;;;1.90;0.30;;;;;;;16.73;69.18;100666.09;5589641;31;33962;-66
2023/10/08 12:40:22;;;;;;;0.95;0.30;;;;;;;16.72;70.20;100657.22;5589755;31;34604;-69
2023/10/08 12:43:28;;;;;;;2.05;0.30;;;;;;;17.01;70.52;100664.13;5589764;31;35120;-67
2023/10/08 12:46:33;;;;;;;0.73;0.32;;;;;;;16.79;71.15;100681.37;5589386;31;34516;-68
2023/10/08 12:49:37;;;;;;;2.35;0.30;;;;;;;16.79;70.46;100673.34;5589558;31;34137;-67
2023/10/08 12:52:52;;;;;;;2.78;0.30;;;;;;;16.84;69.08;100687.78;5575838;31;34041;-67
2023/10/08 12:55:58;;;;;;;2.60;0.40;;;;;;;16.87;65.25;100692.75;5589657;31;33733;-67
2023/10/08 12:59:04;;;;;;;10.23;0.93;;;;;;;16.47;65.84;100699.75;5589386;31;34891;-67
2023/10/08 13:02:10;;;;;;;2.20;0.68;;;;;;;16.37;66.50;100695.75;5589386;31;34590;-66
2023/10/08 13:05:16;;;;;;;3.08;0.40;;;;;;;16.40;65.93;100690.87;5589481;31;33895;-67
2023/10/08 13:08:20;;;;;;;2.55;0.45;;;;;;;16.44;64.91;100715.37;5589424;31;33888;-66
2023/10/08 13:11:25;;;;;;;2.05;0.50;;;;;;;16.38;64.94;100692.06;5589562;31;33763;-66
2023/10/08 13:14:28;;;;;;;3.03;0.50;;;;;;;16.24;66.02;100707.22;5589542;31;34475;-67
2023/10/08 13:17:32;;;;;;;4.12;0.50;;;;;;;16.35;66.31;100706.69;5589745;31;34772;-66
2023/10/08 13:20:36;;;;;;;1.42;0.30;;;;;;;16.13;66.11;100699.75;5589386;31;33994;-65
2023/10/08 13:23:39;;;;;;;1.23;0.40;;;;;;;16.26;65.50;100712.41;5589512;31;34806;-67
2023/10/08 13:26:47;;;;;;;2.83;0.50;;;;;;;16.26;65.87;100710.56;5589556;31;34511;-65
2023/10/08 13:29:51;;;;;;;2.35;0.30;;;;;;;16.23;65.56;100708.25;5589316;31;33918;-67
2023/10/08 13:32:55;;;;;;;3.75;0.60;;;;;;;16.01;66.47;100715.53;5589748;31;34993;-66
2023/10/08 13:35:58;;;;;;;6.10;0.60;;;;;;;15.93;66.71;100712.16;5589686;31;34765;-67
2023/10/08 13:39:21;;;;;;;6.55;0.73;;;;;;;16.02;65.86;100709.13;5588963;31;33888;-67
2023/10/08 13:42:26;;;;;;;3.33;0.47;;;;;;;16.04;65.91;100700.91;5589208;31;33777;-65
2023/10/08 13:45:32;;;;;;;3.60;0.62;;;;;;;15.97;65.42;100718.78;5589034;31;34570;-67
2023/10/08 13:48:36;;;;;;;5.82;1.00;;;;;;;15.90;65.87;100723.25;5588792;31;34427;-67
2023/10/08 13:51:40;;;;;;;3.87;0.60;;;;;;;15.93;65.01;100737.06;5588406;31;34043;-67
2023/10/08 13:54:50;;;;;;;1.90;0.50;;;;;;;15.81;65.18;100732.44;5588516;31;34600;-65
2023/10/08 13:57:55;;;;;;;2.50;0.40;;;;;;;15.87;65.19;100737.03;5589167;31;34560;-68
2023/10/08 14:01:00;;;;;;;2.83;0.60;;;;;;;15.76;64.98;100721.50;5589014;31;34117;-66
2023/10/08 14:04:07;;;;;;;2.33;0.60;;;;;;;15.87;66.39;100729.00;5588477;31;34525;-65
2023/10/08 14:07:16;;;;;;;1.83;0.50;;;;;;;15.85;64.87;100723.00;5574994;31;35223;-67
2023/10/08 14:10:20;;;;;;;1.42;0.75;;;;;;;15.92;65.21;100718.53;5575088;31;33843;-66
2023/10/08 14:13:24;;;;;;;2.78;0.80;;;;;;;15.83;64.31;100731.22;5588810;31;34032;-66
2023/10/08 14:16:32;;;;;;;3.90;0.62;;;;;;;15.69;64.43;100750.84;5589086;31;34360;-67
2023/10/08 14:19:39;;;;;;;1.85;0.95;;;;;;;15.68;64.58;100751.06;5588809;31;34664;-67
2023/10/08 14:22:44;;;;;;;1.20;0.70;;;;;;;15.61;64.26;100748.31;5588605;31;34082;-67
2023/10/08 14:25:49;;;;;;;3.47;0.88;;;;;;;15.62;63.81;100755.31;5588463;31;33815;-67
2023/10/08 14:28:58;;;;;;;3.95;1.00;;;;;;;15.65;63.25;100757.59;5587754;31;33957;-67
2023/10/08 14:32:01;;;;;;;3.00;0.80;;;;;;;15.59;62.21;100763.72;5574551;31;32800;-67
2023/10/08 14:45:18;;;;;;;1.35;0.90;;;;;;;15.53;60.51;100777.88;5588193;31;34640;-65
2023/10/08 14:48:23;;;;;;;2.53;1.00;;;;;;;15.50;60.12;100791.56;5588049;31;34881;-67
2023/10/08 14:51:26;;;;;;;2.55;1.10;;;;;;;15.43;59.83;100794.19;5588119;31;33851;-66
2023/10/08 14:54:30;;;;;;;3.65;1.30;;;;;;;15.43;59.71;100793.34;5587714;31;35100;-67
2023/10/08 14:57:34;;;;;;;6.97;1.12;;;;;;;15.37;58.56;100783.41;5587789;31;34803;-67
2023/10/08 15:00:38;;;;;;;5.97;1.00;;;;;;;15.39;59.38;100787.56;5587810;31;34630;-67
2023/10/08 15:03:42;;;;;;;4.00;1.10;;;;;;;15.30;60.52;100794.00;5574254;31;34718;-66
2023/10/08 15:06:47;;;;;;;3.35;1.33;;;;;;;15.17;59.90;100802.72;5590223;31;33922;-66
2023/10/08 15:09:52;;;;;;;2.80;1.08;;;;;;;15.22;60.17;100804.81;5590319;31;33803;-66